Hauptseite
METAR-TAF:

METAR-TAF

Flughäfen :

Rivas, Nicaragua

Breite: 11-25N, Länge: 085-50W, Höhe: 53 m

Beobachtung

Neuester Wetterbericht von vor 4 Stunden und 20 Minuten, um 23:00 UTC
Windstille
Temperatur 27°C
Luftfeuchtigkeit 89%
Luftdruck 1008 hPa
Sichtweite 10 km oder mehr
Leicht bewölkt in der Höhe von 1300 ft, Kumulonimbus.
Durchbrochene Bewölkung in der Höhe von 1400 ft

METAR: MNRS 172300Z 00000KT 9999 FEW013CB BKN014 27/25 Q1008 CB 4/C CBRA/E/S/SE RERA

Zeit: 21:20 (03:20 UTC)


TAF: fehlend

Wetterbeobachtungen und Prognosen von mehr als 4000 Flughäfen (METAR und TAF Bericht).

Die verfügbaren Stationen werden durch gelbe und rote Markierungen auf der Karte dargestellt.

Führen Sie die Maus auf sie, um den Namen der Station zu sehen.

Darauf klicken, um die Beobachtung von Wetterbeobachtungen und Prognosen zu sehen.

Um die Karte zu ändern : klicken Sie auf den grünen Tasten mit einem schwarzen Kreuz Zum Vergrößern, auf den grünen Button mit einem Gedankenstrich zu verkleinern, oder auf die grünen Pfeile für benachbarte Karten.


METAR-TAF: